Time;durP1;ratioP1;P1;durP2;ratioP2;P2;SDS_P1;SDS_P2;PMS_P1;PMS_P2;Temp;Humidity;BMP_temperature;BMP_pressure;BME280_temperature;BME280_humidity;BME280_pressure;Samples;Min_cycle;Max_cycle;Signal;HPM_P1;HPM_P2
2021/07/05 00:02:20;;;;;;;;;4.00;2.00;;;;;20.87;56.48;99924.69;5033808;28;45570;-74
2021/07/05 00:04:45;;;;;;;;;2.75;2.75;;;;;20.87;56.42;99914.09;5034982;28;47258;-75
2021/07/05 00:07:11;;;;;;;;;5.00;3.25;;;;;20.88;56.30;99913.13;5036673;28;52065;-75
2021/07/05 00:09:36;;;;;;;;;3.00;3.00;;;;;20.89;56.21;99924.56;5018553;28;45467;-74
2021/07/05 00:12:02;;;;;;;;;3.50;3.25;;;;;20.88;56.06;99928.19;5034922;28;45330;-75
2021/07/05 00:14:28;;;;;;;;;3.25;3.25;;;;;20.88;56.30;99917.59;5017864;28;45741;-76
2021/07/05 00:16:53;;;;;;;;;3.00;3.00;;;;;20.87;56.05;99911.44;5033505;28;64014;-74
2021/07/05 00:19:19;;;;;;;;;2.75;2.25;;;;;20.88;56.11;99902.50;5018196;28;45428;-73
2021/07/05 00:21:44;;;;;;;;;3.00;3.00;;;;;20.87;55.88;99898.16;5033622;28;54505;-73
2021/07/05 00:24:10;;;;;;;;;2.25;1.25;;;;;20.87;55.96;99900.81;5050299;28;46262;-72
2021/07/05 00:26:35;;;;;;;;;3.00;3.00;;;;;20.86;55.70;99907.09;5036754;28;45342;-75
2021/07/05 00:29:00;;;;;;;;;2.50;2.50;;;;;20.84;55.99;99924.94;5038481;28;45241;-75
2021/07/05 00:31:26;;;;;;;;;3.00;3.00;;;;;20.84;55.58;99916.97;5035975;28;45384;-73
2021/07/05 00:33:51;;;;;;;;;2.25;2.00;;;;;20.82;55.77;99916.25;5016154;28;67793;-76
2021/07/05 00:36:17;;;;;;;;;3.00;3.00;;;;;20.80;55.98;99923.47;5035819;28;56667;-78
2021/07/05 00:38:42;;;;;;;;;5.25;2.75;;;;;20.79;55.81;99921.78;5017537;28;45375;-73
2021/07/05 00:41:08;;;;;;;;;3.00;3.00;;;;;20.78;55.88;99924.56;5034225;28;45281;-74
2021/07/05 00:43:33;;;;;;;;;2.25;2.25;;;;;20.76;55.72;99919.38;5036076;28;58733;-76
2021/07/05 00:45:58;;;;;;;;;1.25;1.25;;;;;20.75;55.80;99920.34;5034823;28;45422;-75
2021/07/05 00:48:24;;;;;;;;;4.00;3.50;;;;;20.72;55.68;99912.63;5033946;28;50525;-75
2021/07/05 00:50:50;;;;;;;;;4.75;3.00;;;;;20.70;55.72;99911.88;5017391;28;45427;-77
2021/07/05 00:53:15;;;;;;;;;2.00;2.00;;;;;20.67;55.50;99906.81;5033658;28;45465;-75
2021/07/05 00:55:40;;;;;;;;;3.25;3.00;;;;;20.65;55.50;99909.59;5033620;28;57960;-76
2021/07/05 00:58:06;;;;;;;;;3.75;3.00;;;;;20.63;55.44;99914.19;5034363;28;45473;-76
2021/07/05 01:00:31;;;;;;;;;2.25;2.25;;;;;20.61;55.74;99916.09;5033141;28;45625;-73
2021/07/05 01:02:57;;;;;;;;;3.00;1.00;;;;;20.58;55.83;99918.13;5033816;28;46670;-72
2021/07/05 01:05:23;;;;;;;;;2.00;2.00;;;;;20.57;55.48;99895.22;5033501;28;45573;-73
2021/07/05 01:07:48;;;;;;;;;4.50;3.50;;;;;20.55;55.37;99884.72;5035698;28;45835;-74
2021/07/05 01:10:15;;;;;;;;;4.50;2.50;;;;;20.55;55.67;99881.22;5034563;28;45912;-72
2021/07/05 01:12:40;;;;;;;;;3.00;1.50;;;;;20.52;56.05;99878.81;5036066;28;45823;-72
2021/07/05 01:15:11;;;;;;;;;3.00;3.00;;;;;20.49;55.50;99876.41;5034357;28;45258;-73
2021/07/05 01:17:36;;;;;;;;;2.75;2.75;;;;;20.48;55.55;99888.81;5034926;28;45410;-77
2021/07/05 01:20:02;;;;;;;;;2.00;2.00;;;;;20.45;55.57;99875.78;5034320;28;45326;-76
2021/07/05 01:22:28;;;;;;;;;3.00;3.00;;;;;20.43;55.44;99861.81;5034109;28;47294;-73
2021/07/05 01:24:53;;;;;;;;;3.50;3.50;;;;;20.41;55.58;99848.66;5035436;28;45427;-75
2021/07/05 01:27:20;;;;;;;;;2.75;2.25;;;;;20.40;55.47;99849.63;5035764;28;45484;-76
2021/07/05 01:29:46;;;;;;;;;1.75;1.75;;;;;20.39;55.71;99847.91;5017374;28;45383;-75
2021/07/05 01:32:11;;;;;;;;;1.50;1.25;;;;;20.39;55.61;99855.03;5017363;28;45530;-75
2021/07/05 01:34:37;;;;;;;;;2.00;2.00;;;;;20.37;55.58;99863.06;5034010;28;45261;-76
2021/07/05 01:37:04;;;;;;;;;3.00;3.00;;;;;20.36;55.67;99863.19;5035074;28;45403;-75
2021/07/05 01:39:29;;;;;;;;;2.00;2.00;;;;;20.34;55.55;99850.06;5017734;28;45487;-76
2021/07/05 01:41:55;;;;;;;;;1.00;1.00;;;;;20.33;55.95;99851.00;5033121;28;58378;-76
2021/07/05 01:44:20;;;;;;;;;2.75;2.75;;;;;20.32;55.59;99859.09;5017024;28;45302;-76
2021/07/05 01:46:46;;;;;;;;;4.50;3.00;;;;;20.29;55.40;99868.13;5033846;28;45355;-75
2021/07/05 01:49:11;;;;;;;;;3.00;2.25;;;;;20.28;55.45;99870.91;5034199;28;45324;-78
2021/07/05 01:51:37;;;;;;;;;3.00;2.25;;;;;20.27;55.65;99869.22;5018677;28;46873;-75
2021/07/05 01:54:03;;;;;;;;;2.00;2.00;;;;;20.25;55.41;99874.63;5036177;28;45492;-77
2021/07/05 01:56:28;;;;;;;;;2.75;1.75;;;;;20.24;55.76;99865.00;5035137;28;45504;-76
2021/07/05 01:58:54;;;;;;;;;2.25;1.25;;;;;20.23;55.57;99873.91;5035371;28;45501;-76
2021/07/05 02:01:19;;;;;;;;;4.25;3.00;;;;;20.22;55.71;99872.22;5033026;28;62065;-76
2021/07/05 02:03:45;;;;;;;;;2.00;2.00;;;;;20.21;55.63;99857.28;5034503;28;45491;-75
2021/07/05 02:06:10;;;;;;;;;4.00;1.75;;;;;20.19;55.37;99859.19;5033842;28;45417;-75
2021/07/05 02:08:36;;;;;;;;;2.00;1.50;;;;;20.17;55.43;99869.09;5035238;28;45734;-76
2021/07/05 02:11:02;;;;;;;;;3.75;3.00;;;;;20.15;55.78;99881.59;5034532;28;45493;-73
2021/07/05 02:13:29;;;;;;;;;2.00;2.00;;;;;20.15;55.50;99877.13;5033256;28;45460;-75
2021/07/05 02:15:56;;;;;;;;;2.00;1.00;;;;;20.13;55.66;99873.75;5017027;28;45393;-74
2021/07/05 02:18:22;;;;;;;;;1.25;1.25;;;;;20.14;55.93;99879.88;5033826;28;45552;-75
2021/07/05 02:20:47;;;;;;;;;2.50;1.00;;;;;20.10;55.90;99867.84;5033133;28;46156;-75
2021/07/05 02:23:14;;;;;;;;;4.00;2.00;;;;;20.10;55.58;99867.84;5033896;28;45375;-75
2021/07/05 02:25:40;;;;;;;;;2.25;2.25;;;;;20.09;55.96;99867.00;5034001;28;45316;-76
2021/07/05 02:28:08;;;;;;;;;2.00;2.00;;;;;20.07;55.82;99854.81;5033332;28;45661;-72
2021/07/05 02:30:33;;;;;;;;;2.00;1.25;;;;;20.06;55.97;99853.13;5034687;28;45396;-75
2021/07/05 02:32:59;;;;;;;;;1.25;1.25;;;;;20.06;56.04;99861.91;5035448;28;45626;-74
2021/07/05 02:35:26;;;;;;;;;3.25;3.25;;;;;20.07;56.11;99849.50;5035650;28;45372;-73
2021/07/05 02:37:52;;;;;;;;;3.00;2.00;;;;;20.07;55.90;99849.50;5033666;28;45610;-74
2021/07/05 02:40:19;;;;;;;;;3.00;2.00;;;;;20.07;55.76;99841.56;5032903;28;46425;-75
2021/07/05 02:42:45;;;;;;;;;1.25;0.50;;;;;20.06;56.17;99839.88;5034263;28;45413;-72
2021/07/05 02:45:17;;;;;;;;;3.25;2.25;;;;;20.06;56.22;99832.75;5035038;28;45424;-73
2021/07/05 02:47:42;;;;;;;;;2.00;2.00;;;;;20.05;56.13;99822.28;5033870;28;45606;-75
2021/07/05 02:50:09;;;;;;;;;4.25;3.00;;;;;20.05;55.85;99832.88;5028434;28;51279;-72
2021/07/05 02:52:34;;;;;;;;;3.75;1.50;;;;;20.04;56.16;99823.25;5014574;28;45384;-72
2021/07/05 02:55:00;;;;;;;;;2.00;2.00;;;;;20.02;55.97;99820.72;4996596;28;45308;-74
2021/07/05 02:57:31;;;;;;;;;1.00;1.00;;;;;20.01;55.84;99821.66;5016786;28;45525;-75
2021/07/05 03:00:02;;;;;;;;;2.00;2.00;;;;;20.01;56.27;99810.22;5016652;28;45421;-76
2021/07/05 03:02:29;;;;;;;;;2.00;2.00;;;;;20.00;55.98;99814.69;5017345;28;45417;-76
2021/07/05 03:04:54;;;;;;;;;2.75;2.75;;;;;19.99;56.00;99804.19;4999985;28;45408;-76
2021/07/05 03:07:20;;;;;;;;;5.00;2.25;;;;;19.99;56.13;99804.19;5016412;28;45363;-75
2021/07/05 03:09:45;;;;;;;;;2.50;2.50;;;;;19.97;56.00;99792.88;5024145;28;55978;-75
2021/07/05 03:12:11;;;;;;;;;3.00;3.00;;;;;19.97;56.16;99793.72;5037196;28;45557;-74
2021/07/05 03:14:36;;;;;;;;;3.50;3.00;;;;;19.94;56.02;99798.38;5038668;28;45442;-74
2021/07/05 03:17:02;;;;;;;;;3.00;3.00;;;;;19.93;56.22;99796.69;5037446;28;45612;-75
2021/07/05 03:19:27;;;;;;;;;2.75;2.00;;;;;19.90;56.34;99795.13;5037543;28;45402;-75
2021/07/05 03:21:52;;;;;;;;;2.25;2.25;;;;;19.89;56.11;99796.09;5037269;28;45392;-74
2021/07/05 03:24:18;;;;;;;;;3.00;2.00;;;;;19.87;56.47;99795.38;5034167;28;63769;-77
2021/07/05 03:26:43;;;;;;;;;2.00;2.00;;;;;19.86;56.35;99796.31;5033124;28;45592;-75
2021/07/05 03:29:09;;;;;;;;;3.25;1.25;;;;;19.84;56.70;99801.75;5036812;28;45349;-76
2021/07/05 03:31:34;;;;;;;;;2.25;2.25;;;;;19.81;56.72;99794.03;5019116;28;45312;-76
2021/07/05 03:33:59;;;;;;;;;3.00;3.00;;;;;19.82;56.82;99794.88;5033435;28;60057;-76
2021/07/05 03:36:25;;;;;;;;;3.00;3.00;;;;;19.78;56.80;99786.31;5027000;28;45307;-76
2021/07/05 03:38:50;;;;;;;;;3.50;2.50;;;;;19.75;56.60;99788.34;5034648;28;46190;-74
2021/07/05 03:41:16;;;;;;;;;3.75;3.25;;;;;19.72;56.92;99791.22;5017072;28;58106;-75
2021/07/05 03:43:41;;;;;;;;;3.75;2.50;;;;;19.69;57.08;99786.16;5018744;28;60416;-75
2021/07/05 03:46:06;;;;;;;;;3.00;2.00;;;;;19.66;57.08;99783.72;5035799;28;45422;-75
2021/07/05 03:48:32;;;;;;;;;2.50;2.50;;;;;19.62;57.15;99779.63;5032902;28;45579;-74
2021/07/05 03:50:57;;;;;;;;;4.75;3.25;;;;;19.58;56.99;99779.03;5035597;28;56668;-72
2021/07/05 03:53:23;;;;;;;;;3.50;3.00;;;;;19.55;57.25;99763.34;5035127;28;45391;-73
2021/07/05 03:55:48;;;;;;;;;2.25;2.00;;;;;19.50;57.61;99765.44;5035934;28;45549;-73
2021/07/05 03:58:16;;;;;;;;;4.00;4.00;;;;;19.48;57.15;99775.31;5036181;28;45366;-74
2021/07/05 04:00:41;;;;;;;;;4.00;4.00;;;;;19.43;57.22;99762.44;5035913;28;45407;-74
2021/07/05 04:03:07;;;;;;;;;4.00;4.00;;;;;19.42;57.79;99763.38;5017975;28;45522;-76
2021/07/05 04:05:32;;;;;;;;;5.50;4.00;;;;;19.37;57.88;99752.28;5017697;28;45388;-76
2021/07/05 04:07:58;;;;;;;;;5.25;4.25;;;;;19.36;57.95;99752.41;5035513;28;46078;-76
2021/07/05 04:10:24;;;;;;;;;2.00;2.00;;;;;19.33;57.96;99745.53;5005661;28;45689;-76
2021/07/05 04:12:49;;;;;;;;;3.00;3.00;;;;;19.30;57.93;99731.66;5036465;28;45451;-73
2021/07/05 04:15:15;;;;;;;;;3.00;3.00;;;;;19.28;57.87;99736.22;5034321;28;45824;-74
2021/07/05 04:17:40;;;;;;;;;2.50;2.50;;;;;19.22;58.28;99722.50;5036883;28;45988;-73
2021/07/05 04:20:11;;;;;;;;;7.75;4.00;;;;;19.21;58.21;99725.25;5034009;28;45426;-73
2021/07/05 04:22:36;;;;;;;;;3.00;3.00;;;;;19.18;58.38;99721.03;5018999;28;45441;-75
2021/07/05 04:25:03;;;;;;;;;5.00;5.00;;;;;19.16;58.23;99719.47;5035506;28;45536;-75
2021/07/05 04:27:28;;;;;;;;;4.25;3.75;;;;;19.12;58.60;99723.31;5035820;28;46325;-74
2021/07/05 04:29:54;;;;;;;;;4.00;4.00;;;;;19.08;58.68;99720.03;5035222;28;45517;-75
2021/07/05 04:32:19;;;;;;;;;4.00;3.00;;;;;19.04;58.57;99726.50;5035344;28;45429;-74
2021/07/05 04:34:44;;;;;;;;;3.00;3.00;;;;;18.98;58.59;99713.72;5036971;28;47613;-75
2021/07/05 04:37:10;;;;;;;;;2.25;2.25;;;;;18.97;58.62;99716.50;5036330;28;46180;-77
2021/07/05 04:39:36;;;;;;;;;5.00;4.00;;;;;18.93;59.02;99721.16;5050184;28;45423;-75
2021/07/05 04:42:02;;;;;;;;;3.00;2.00;;;;;18.90;58.72;99716.09;5034957;28;45344;-76
2021/07/05 04:44:27;;;;;;;;;4.75;3.00;;;;;18.88;59.04;99718.88;5036163;28;45632;-77
2021/07/05 04:46:53;;;;;;;;;3.00;3.00;;;;;18.84;59.29;99729.75;5035310;28;50539;-76
2021/07/05 04:49:19;;;;;;;;;3.00;3.00;;;;;18.80;58.94;99720.34;5034702;28;45382;-75
2021/07/05 04:51:44;;;;;;;;;3.25;3.25;;;;;18.76;59.13;99710.97;5036346;28;45323;-73
2021/07/05 04:54:10;;;;;;;;;6.50;4.25;;;;;18.74;59.39;99703.13;5050322;28;46029;-76
2021/07/05 04:56:35;;;;;;;;;3.00;3.00;;;;;18.72;62.01;99704.19;5031947;28;47811;-73
2021/07/05 04:59:01;;;;;;;;;3.00;3.00;;;;;18.41;63.15;99682.56;5033238;28;45441;-81
2021/07/05 05:01:26;;;;;;;;;3.50;2.75;;;;;18.12;63.82;99662.66;5026707;28;45387;-80
2021/07/05 05:03:52;;;;;;;;;2.75;2.75;;;;;17.93;64.77;99660.44;5032524;28;45570;-82
2021/07/05 05:06:17;;;;;;;;;4.00;3.00;;;;;17.77;65.58;99654.53;5039173;28;57750;-76
2021/07/05 05:08:43;;;;;;;;;3.00;2.75;;;;;17.63;66.38;99647.53;5031503;28;45474;-76
2021/07/05 05:11:08;;;;;;;;;3.00;3.00;;;;;17.53;66.70;99643.84;5016497;28;45473;-77
2021/07/05 05:13:34;;;;;;;;;2.00;2.00;;;;;17.44;67.34;99645.31;5035199;28;45573;-81
2021/07/05 05:15:59;;;;;;;;;3.75;3.75;;;;;17.27;68.17;99629.78;5035433;28;55380;-79
2021/07/05 05:18:25;;;;;;;;;3.75;3.75;;;;;17.14;69.96;99635.03;5047196;28;45407;-76
2021/07/05 05:20:50;;;;;;;;;3.50;2.50;;;;;17.02;69.68;99627.94;5034312;28;45572;-75
2021/07/05 05:23:16;;;;;;;;;4.00;4.00;;;;;16.99;69.78;99621.06;5033176;28;45349;-76
2021/07/05 05:25:41;;;;;;;;;2.75;2.75;;;;;16.98;69.57;99622.03;5031449;28;48369;-80
2021/07/05 05:28:07;;;;;;;;;5.25;2.25;;;;;16.95;69.85;99613.47;5032337;28;45384;-76
2021/07/05 05:30:33;;;;;;;;;1.00;1.00;;;;;16.85;70.00;99609.75;5032018;28;45256;-75
2021/07/05 05:32:58;;;;;;;;;2.25;2.25;;;;;16.75;70.25;99607.72;5022381;28;45651;-76
2021/07/05 05:35:24;;;;;;;;;2.00;2.00;;;;;16.69;70.01;99623.91;5031727;28;45780;-77
2021/07/05 05:37:51;;;;;;;;;1.00;1.00;;;;;16.63;70.38;99623.44;4997910;28;45436;-75
2021/07/05 05:40:19;;;;;;;;;3.00;1.00;;;;;16.61;69.92;99622.72;5034426;28;45501;-77
2021/07/05 05:42:45;;;;;;;;;1.00;1.00;;;;;16.60;70.03;99616.59;5001562;28;45385;-77
2021/07/05 05:45:10;;;;;;;;;1.00;1.00;;;;;16.64;69.75;99612.81;5034670;28;45356;-82
2021/07/05 05:47:36;;;;;;;;;3.00;1.75;;;;;16.70;69.99;99620.38;5014169;28;45475;-77
2021/07/05 05:50:02;;;;;;;;;1.50;1.50;;;;;16.80;70.00;99628.50;5036972;28;45346;-80
2021/07/05 05:52:27;;;;;;;;;0.75;0.75;;;;;16.83;69.47;99638.00;5029546;28;45791;-80
2021/07/05 05:54:52;;;;;;;;;4.25;2.00;;;;;16.88;69.36;99639.38;5038187;28;46575;-77
2021/07/05 05:57:28;;;;;;;;;3.00;3.00;;;;;16.95;69.47;99653.03;5041002;28;45505;-77
2021/07/05 05:59:56;;;;;;;;;3.00;3.00;;;;;17.01;69.38;99658.75;5050047;28;45549;-80
2021/07/05 06:02:22;;;;;;;;;2.25;2.25;;;;;17.10;69.17;99655.47;5023640;28;45591;-79
2021/07/05 06:04:48;;;;;;;;;2.25;2.25;;;;;17.18;68.83;99662.91;5024403;28;45376;-78
2021/07/05 06:07:13;;;;;;;;;2.50;2.50;;;;;17.25;69.11;99648.34;5029299;28;45712;-76
2021/07/05 06:09:38;;;;;;;;;2.50;2.50;;;;;17.32;68.73;99643.50;5028561;28;45547;-80
2021/07/05 06:12:04;;;;;;;;;2.00;2.00;;;;;17.33;68.46;99640.75;5024044;28;45399;-80
2021/07/05 06:14:29;;;;;;;;;2.00;2.00;;;;;17.31;68.16;99637.38;5014368;28;45466;-77
2021/07/05 06:16:55;;;;;;;;;2.00;2.00;;;;;17.36;68.52;99647.63;5024851;28;45581;-81
2021/07/05 06:19:20;;;;;;;;;3.00;3.00;;;;;17.44;68.26;99647.13;5016575;28;45314;-80
2021/07/05 06:21:46;;;;;;;;;2.00;2.00;;;;;17.55;68.42;99647.22;5016401;28;45379;-77
2021/07/05 06:24:11;;;;;;;;;5.00;3.00;;;;;17.67;68.08;99651.66;5016359;28;48819;-76
2021/07/05 06:26:36;;;;;;;;;2.50;2.50;;;;;17.75;67.62;99649.34;5011033;28;55358;-82
2021/07/05 06:29:02;;;;;;;;;1.75;1.75;;;;;17.83;67.72;99646.22;5030781;28;45483;-79
2021/07/05 06:31:27;;;;;;;;;3.00;3.00;;;;;17.86;67.42;99641.56;5017588;28;45423;-81
2021/07/05 06:33:53;;;;;;;;;2.00;2.00;;;;;17.88;67.52;99639.66;5035404;28;45726;-76
2021/07/05 06:36:18;;;;;;;;;3.00;3.00;;;;;17.91;67.30;99642.06;5030339;28;66383;-75
2021/07/05 06:38:44;;;;;;;;;3.50;2.25;;;;;17.92;67.39;99646.41;5018459;28;45431;-75
2021/07/05 06:41:09;;;;;;;;;2.50;2.50;;;;;17.96;67.25;99642.56;5024486;28;45571;-75
2021/07/05 06:43:35;;;;;;;;;2.50;2.50;;;;;17.96;67.19;99647.88;5040753;28;47107;-75
2021/07/05 06:46:00;;;;;;;;;2.00;2.00;;;;;17.99;67.30;99639.72;5019878;28;45514;-74
2021/07/05 06:48:25;;;;;;;;;2.75;2.75;;;;;18.02;67.10;99633.41;5035211;28;49941;-76
2021/07/05 06:50:51;;;;;;;;;3.00;3.00;;;;;18.01;67.27;99632.56;5035302;28;55881;-77
2021/07/05 06:53:16;;;;;;;;;3.00;3.00;;;;;18.07;67.21;99622.50;5002094;28;65128;-77
2021/07/05 06:55:42;;;;;;;;;1.75;1.75;;;;;18.14;67.32;99631.66;5035586;28;51297;-74
2021/07/05 06:58:07;;;;;;;;;2.50;2.00;;;;;18.18;67.29;99635.78;5034566;28;45529;-76
2021/07/05 07:00:33;;;;;;;;;2.75;2.00;;;;;18.19;67.04;99642.75;5036509;28;45898;-74
2021/07/05 07:02:58;;;;;;;;;2.75;2.50;;;;;18.20;67.11;99641.78;5018339;28;47752;-76
2021/07/05 07:05:24;;;;;;;;;4.00;3.00;;;;;18.26;66.89;99633.44;5035766;28;45414;-75
2021/07/05 07:07:53;;;;;;;;;3.00;3.00;;;;;18.32;67.10;99647.06;5052886;28;45450;-75
2021/07/05 07:10:19;;;;;;;;;2.00;2.00;;;;;18.35;66.79;99653.09;5035472;28;45436;-76
2021/07/05 07:12:48;;;;;;;;;2.00;2.00;;;;;18.37;66.73;99659.94;5034912;28;48218;-75
2021/07/05 07:15:15;;;;;;;;;2.75;2.75;;;;;18.40;66.57;99653.59;5032236;28;45462;-77
2021/07/05 07:17:45;;;;;;;;;2.25;2.25;;;;;18.43;66.65;99654.22;5035369;28;45397;-77
2021/07/05 07:20:12;;;;;;;;;5.00;5.00;;;;;18.44;66.79;99652.44;5035383;28;45933;-74
2021/07/05 07:22:38;;;;;;;;;4.25;4.00;;;;;18.46;66.65;99648.72;5034769;28;46179;-77
2021/07/05 07:25:04;;;;;;;;;4.00;3.25;;;;;18.47;67.15;99642.47;5036155;28;45431;-77
2021/07/05 07:27:30;;;;;;;;;5.00;4.00;;;;;18.53;66.48;99643.84;5038019;28;45412;-78
2021/07/05 07:29:55;;;;;;;;;4.00;3.00;;;;;18.61;66.68;99652.03;5039183;28;45526;-77
2021/07/05 07:32:20;;;;;;;;;3.75;3.75;;;;;18.69;66.59;99652.38;5041282;28;52853;-76
2021/07/05 07:34:46;;;;;;;;;3.00;3.00;;;;;18.75;66.52;99653.72;5040163;28;49039;-77
2021/07/05 07:37:11;;;;;;;;;5.00;4.75;;;;;18.81;66.21;99653.25;5040227;28;45352;-78
2021/07/05 07:39:42;;;;;;;;;3.00;3.00;;;;;18.86;66.26;99659.91;5036799;28;45534;-77
2021/07/05 07:42:07;;;;;;;;;4.75;4.00;;;;;18.87;65.70;99656.31;5035338;28;45779;-77
2021/07/05 07:44:36;;;;;;;;;5.00;5.00;;;;;18.85;66.08;99667.94;5036741;28;44837;-76
2021/07/05 07:47:02;;;;;;;;;6.25;4.00;;;;;18.83;65.79;99664.56;5034508;28;45379;-77
2021/07/05 07:49:30;;;;;;;;;3.50;3.50;;;;;18.87;65.88;99666.91;5035052;28;45703;-78
2021/07/05 07:51:55;;;;;;;;;4.00;3.00;;;;;18.94;66.14;99664.63;5036434;28;45472;-76
2021/07/05 07:54:21;;;;;;;;;4.75;4.25;;;;;19.01;66.02;99665.88;5036212;28;45455;-75
2021/07/05 07:56:46;;;;;;;;;5.25;3.75;;;;;19.05;65.73;99669.97;5034831;28;45435;-76
2021/07/05 07:59:12;;;;;;;;;3.00;3.00;;;;;19.12;65.42;99659.78;5036574;28;45568;-77
2021/07/05 08:01:37;;;;;;;;;6.00;5.00;;;;;19.18;65.51;99643.44;5035064;28;46261;-75
2021/07/05 08:04:03;;;;;;;;;3.50;3.50;;;;;19.24;65.48;99645.63;5035943;28;45326;-76
2021/07/05 08:06:28;;;;;;;;;6.00;6.00;;;;;19.32;65.33;99637.94;5034277;28;45829;-76
2021/07/05 08:08:55;;;;;;;;;6.75;5.50;;;;;19.43;65.41;99645.06;5035695;28;45425;-76
2021/07/05 08:11:21;;;;;;;;;4.75;4.75;;;;;19.55;64.80;99645.97;5034521;28;46310;-79
2021/07/05 08:13:46;;;;;;;;;6.50;5.75;;;;;19.68;64.87;99644.91;5033544;28;45364;-78
2021/07/05 08:16:11;;;;;;;;;5.00;5.00;;;;;19.77;64.61;99638.91;5016997;28;46042;-77
2021/07/05 08:18:37;;;;;;;;;5.00;4.50;;;;;19.84;64.38;99641.91;5034392;28;45524;-78
2021/07/05 08:21:03;;;;;;;;;6.00;6.00;;;;;19.92;64.30;99643.94;5034918;28;46541;-74
2021/07/05 08:23:29;;;;;;;;;6.00;6.00;;;;;19.97;64.09;99642.66;5035099;28;45339;-75
2021/07/05 08:25:54;;;;;;;;;5.75;5.75;;;;;20.01;64.08;99645.88;5034715;28;45493;-79
2021/07/05 08:28:20;;;;;;;;;5.75;4.00;;;;;20.08;64.01;99652.38;5034090;28;45512;-76
2021/07/05 08:30:45;;;;;;;;;4.75;4.75;;;;;20.20;63.58;99655.88;5035799;28;45495;-77
2021/07/05 08:33:11;;;;;;;;;6.00;5.25;;;;;20.30;63.64;99655.03;5033464;28;45478;-75
2021/07/05 08:35:36;;;;;;;;;6.00;6.00;;;;;20.36;63.22;99662.47;5036174;28;45386;-75
2021/07/05 08:38:02;;;;;;;;;6.00;5.00;;;;;20.42;62.86;99663.84;5035018;28;45706;-75
2021/07/05 08:40:27;;;;;;;;;6.50;6.00;;;;;20.43;63.03;99658.41;5036496;28;46968;-77
2021/07/05 08:42:54;;;;;;;;;6.25;5.00;;;;;20.50;62.97;99655.25;5000889;28;45530;-77
2021/07/05 08:45:20;;;;;;;;;5.00;5.00;;;;;20.57;63.15;99656.44;5034800;28;45320;-75
2021/07/05 08:47:49;;;;;;;;;6.00;6.00;;;;;20.60;62.54;99653.53;5034816;28;55552;-76
2021/07/05 08:50:14;;;;;;;;;8.25;7.50;;;;;20.61;62.38;99652.59;5033702;28;46258;-78
2021/07/05 08:52:44;;;;;;;;;7.25;6.00;;;;;20.65;62.62;99644.25;5031673;28;45418;-76
2021/07/05 08:55:14;;;;;;;;;5.00;5.00;;;;;20.72;62.15;99649.91;5016502;28;45376;-79
2021/07/05 08:57:43;;;;;;;;;8.25;6.00;;;;;20.75;62.22;99647.00;5034904;28;45403;-76
2021/07/05 09:00:14;;;;;;;;;5.00;5.00;;;;;20.79;61.68;99651.06;5022770;28;47199;-79
2021/07/05 09:02:39;;;;;;;;;4.00;4.00;;;;;20.79;61.72;99658.19;5038868;28;45451;-78
2021/07/05 09:05:06;;;;;;;;;5.50;5.00;;;;;20.75;61.57;99652.31;5019183;28;45543;-78
2021/07/05 09:07:31;;;;;;;;;5.00;5.00;;;;;20.76;61.06;99654.00;5041779;28;45391;-79
2021/07/05 09:10:03;;;;;;;;;5.25;4.75;;;;;20.78;61.11;99652.03;5037253;28;47666;-78
2021/07/05 09:12:29;;;;;;;;;5.00;5.00;;;;;20.84;61.48;99656.88;5035263;28;45823;-78
2021/07/05 09:15:04;;;;;;;;;5.00;4.50;;;;;20.94;60.81;99655.13;5018778;28;45896;-79
2021/07/05 09:17:33;;;;;;;;;3.00;3.00;;;;;20.93;60.24;99649.97;5035378;28;45897;-78
2021/07/05 09:20:00;;;;;;;;;3.75;3.00;;;;;20.81;60.28;99658.91;5016586;28;48545;-80
2021/07/05 09:22:26;;;;;;;;;4.00;4.00;;;;;20.72;60.27;99666.66;5033606;28;45441;-75
2021/07/05 09:24:51;;;;;;;;;3.00;3.00;;;;;20.62;60.38;99675.50;5034195;28;46250;-77
2021/07/05 09:27:18;;;;;;;;;12.75;11.50;;;;;20.57;60.68;99675.84;5017052;28;45374;-76
2021/07/05 09:29:43;;;;;;;;;5.00;3.50;;;;;20.59;60.61;99673.09;5033263;28;48309;-76
2021/07/05 09:32:11;;;;;;;;;2.25;2.25;;;;;20.52;60.34;99675.41;5032786;28;45896;-78
2021/07/05 09:34:38;;;;;;;;;2.00;2.00;;;;;20.40;60.71;99681.66;5034174;28;45501;-75
2021/07/05 09:37:20;;;;;;;;;3.25;3.25;;;;;20.31;60.78;99677.06;5033712;28;45573;-78
2021/07/05 09:40:01;;;;;;;;;3.50;2.75;;;;;20.30;61.14;99684.19;5033356;28;46365;-75
2021/07/05 09:42:26;;;;;;;;;3.25;2.75;;;;;20.34;61.53;99679.47;5034427;28;45415;-77
2021/07/05 09:44:52;;;;;;;;;3.75;2.00;;;;;20.32;61.20;99682.25;5033378;28;45654;-76
2021/07/05 09:47:18;;;;;;;;;5.75;3.50;;;;;20.28;61.36;99677.31;5034204;28;45327;-77
2021/07/05 09:49:44;;;;;;;;;4.50;4.50;;;;;20.29;61.88;99681.66;5033104;28;48004;-76
2021/07/05 09:52:14;;;;;;;;;8.75;8.75;;;;;20.30;61.97;99681.53;5033446;28;45383;-77
2021/07/05 09:54:42;;;;;;;;;4.75;4.75;;;;;20.29;61.62;99682.50;5034287;28;45419;-76
2021/07/05 09:57:25;;;;;;;;;3.00;3.00;;;;;20.39;61.64;99683.47;5017462;28;45366;-74
2021/07/05 10:00:14;;;;;;;;;6.00;4.50;;;;;20.56;61.32;99679.47;5034394;28;46524;-75
2021/07/05 10:02:59;;;;;;;;;2.00;2.00;;;;;20.71;60.80;99680.91;5025132;28;46019;-75
2021/07/05 10:05:24;;;;;;;;;3.00;3.00;;;;;20.80;60.11;99681.13;5032637;28;45761;-75
2021/07/05 10:08:04;;;;;;;;;2.00;2.00;;;;;20.81;59.77;99680.97;5018299;28;45394;-75
2021/07/05 10:10:30;;;;;;;;;1.75;1.75;;;;;20.84;60.28;99688.72;4998979;28;48153;-77
2021/07/05 10:12:58;;;;;;;;;2.00;1.75;;;;;20.92;59.83;99690.75;4999400;28;45483;-77
2021/07/05 10:15:24;;;;;;;;;3.00;3.00;;;;;20.98;59.75;99690.22;5025904;28;45486;-75
2021/07/05 10:17:50;;;;;;;;;3.00;3.00;;;;;21.03;59.70;99688.03;5003691;28;45383;-77
2021/07/05 10:20:30;;;;;;;;;3.50;3.50;;;;;21.05;59.54;99694.94;5038604;28;45428;-79
2021/07/05 10:22:57;;;;;;;;;3.50;3.25;;;;;21.04;59.21;99689.75;5020784;28;45456;-79
2021/07/05 10:25:23;;;;;;;;;2.00;2.00;;;;;21.01;59.37;99690.81;5036201;28;45426;-77
2021/07/05 10:27:49;;;;;;;;;1.25;1.25;;;;;20.98;59.13;99688.41;5036289;28;45630;-75
2021/07/05 10:30:15;;;;;;;;;2.00;2.00;;;;;20.97;59.34;99689.38;5052963;28;47697;-75
2021/07/05 10:32:41;;;;;;;;;2.00;2.00;;;;;21.08;59.63;99677.06;5036004;28;45504;-76
2021/07/05 10:35:08;;;;;;;;;2.00;2.00;;;;;21.31;59.53;99678.69;5037128;28;45558;-76
2021/07/05 10:37:58;;;;;;;;;2.75;2.75;;;;;21.54;58.50;99682.91;5036954;28;45767;-78
2021/07/05 10:40:25;;;;;;;;;1.25;1.25;;;;;21.88;58.12;99688.81;5016630;28;45547;-76
2021/07/05 10:42:56;;;;;;;;;8.50;6.00;;;;;22.15;57.87;99696.28;5003303;28;46120;-78
2021/07/05 10:45:24;;;;;;;;;2.75;2.75;;;;;22.27;56.70;99710.31;5036279;28;45288;-78
2021/07/05 10:47:54;;;;;;;;;2.25;2.00;;;;;22.42;55.99;99718.78;5036099;28;45383;-78
2021/07/05 10:50:38;;;;;;;;;3.50;3.50;;;;;22.61;56.06;99726.84;5036996;28;45615;-73
2021/07/05 10:53:04;;;;;;;;;3.00;2.00;;;;;23.16;55.23;99716.56;5031752;28;45559;-77
2021/07/05 10:55:49;;;;;;;;;1.00;1.00;;;;;23.46;53.66;99719.13;5019241;28;45828;-76
2021/07/05 10:58:25;;;;;;;;;3.50;2.00;;;;;23.47;52.87;99717.28;5037225;28;45477;-77
2021/07/05 11:00:55;;;;;;;;;2.25;2.25;;;;;23.36;53.54;99712.94;5034907;28;46008;-79
2021/07/05 11:03:39;;;;;;;;;1.50;1.50;;;;;23.22;54.34;99710.72;5035926;28;45595;-76
2021/07/05 11:06:11;;;;;;;;;1.00;1.00;;;;;23.34;53.59;99708.72;5032193;28;45438;-75
2021/07/05 11:08:52;;;;;;;;;2.00;2.00;;;;;23.46;53.10;99695.13;5017106;28;45368;-78
2021/07/05 11:11:31;;;;;;;;;5.75;5.75;;;;;23.74;53.01;99700.59;5032533;28;45445;-78
2021/07/05 11:14:23;;;;;;;;;2.75;2.75;;;;;24.05;52.60;99709.19;5017897;28;45462;-76
2021/07/05 11:17:06;;;;;;;;;2.00;2.00;;;;;24.17;50.79;99699.19;5036229;28;45511;-74
2021/07/05 11:19:50;;;;;;;;;4.25;4.25;;;;;24.24;51.05;99708.28;5033185;28;45502;-74
2021/07/05 11:22:36;;;;;;;;;1.50;1.50;;;;;24.26;50.57;99704.47;5033891;28;48189;-74
2021/07/05 11:25:05;;;;;;;;;3.00;2.00;;;;;24.20;50.19;99702.41;5033356;28;46273;-74
2021/07/05 11:27:33;;;;;;;;;2.75;2.75;;;;;24.04;50.42;99700.34;5035531;28;45505;-75
2021/07/05 11:30:20;;;;;;;;;3.00;2.00;;;;;23.97;50.78;99699.25;5044066;28;45598;-76
2021/07/05 11:32:53;;;;;;;;;1.50;1.50;;;;;24.10;50.98;99692.78;5034877;28;45501;-77
2021/07/05 11:35:48;;;;;;;;;4.50;4.50;;;;;24.29;50.51;99687.34;5038410;28;45425;-78